Time;durP1;ratioP1;P1;durP2;ratioP2;P2;SDS_P1;SDS_P2;PMS_P1;PMS_P2;Temp;Humidity;BMP_temperature;BMP_pressure;BME280_temperature;BME280_humidity;BME280_pressure;Samples;Min_cycle;Max_cycle;Signal;HPM_P1;HPM_P2
2022/05/28 00:01:32;;;;;;;6.93;3.65;;;;;;;15.06;95.42;100498.28;4993010;28;20037;-69
2022/05/28 00:03:59;;;;;;;3.83;2.20;;;;;;;15.04;95.69;100494.81;5008200;28;20128;-69
2022/05/28 00:06:28;;;;;;;5.47;2.10;;;;;;;15.09;95.45;100499.03;4993018;28;20030;-69
2022/05/28 00:08:56;;;;;;;3.42;2.00;;;;;;;15.05;96.07;100497.44;5010434;28;20381;-69
2022/05/28 00:11:37;;;;;;;3.90;1.90;;;;;;;15.03;95.83;100499.28;5009373;28;20018;-69
2022/05/28 00:14:04;;;;;;;4.93;2.13;;;;;;;14.97;96.38;100496.00;5009775;28;20033;-69
2022/05/28 00:16:29;;;;;;;3.50;1.92;;;;;;;14.91;96.67;100499.81;5010590;28;21353;-69
2022/05/28 00:18:55;;;;;;;4.28;2.35;;;;;;;14.81;97.21;100509.16;5010326;28;20034;-69
2022/05/28 00:21:22;;;;;;;3.38;1.73;;;;;;;14.74;97.35;100506.81;5010462;28;20068;-69
2022/05/28 00:23:48;;;;;;;4.32;2.13;;;;;;;14.51;97.91;100495.25;5007240;28;20045;-69
2022/05/28 00:26:15;;;;;;;3.83;2.10;;;;;;;14.51;98.51;100507.78;4993720;28;20026;-69
2022/05/28 00:28:40;;;;;;;4.97;1.88;;;;;;;14.44;99.32;100519.66;4990036;28;20030;-69
2022/05/28 00:31:06;;;;;;;5.60;2.17;;;;;;;14.35;99.75;100509.31;5002629;28;20432;-69
2022/05/28 00:33:34;;;;;;;3.70;2.10;;;;;;;14.29;100.00;100504.22;5009967;28;20473;-69
2022/05/28 00:36:01;;;;;;;4.00;1.98;;;;;;;14.21;100.00;100512.53;5003576;28;20053;-69
2022/05/28 00:38:27;;;;;;;4.32;2.05;;;;;;;14.18;100.00;100517.97;4990476;28;20031;-69
2022/05/28 00:40:56;;;;;;;3.58;1.92;;;;;;;14.14;100.00;100520.81;4973074;28;20057;-69
2022/05/28 00:43:22;;;;;;;3.85;2.17;;;;;;;14.13;100.00;100513.75;4989383;28;20036;-68
2022/05/28 00:45:52;;;;;;;3.85;2.53;;;;;;;14.12;100.00;100512.88;4977685;28;20030;-68
2022/05/28 00:48:22;;;;;;;4.30;2.58;;;;;;;14.08;100.00;100515.72;5009115;28;20042;-68
2022/05/28 00:50:49;;;;;;;3.85;2.00;;;;;;;14.13;100.00;100519.09;5009078;28;20034;-70
2022/05/28 00:53:14;;;;;;;5.53;2.55;;;;;;;14.16;100.00;100527.88;5009113;28;20034;-69
2022/05/28 00:55:40;;;;;;;4.63;2.13;;;;;;;14.18;100.00;100538.53;5008969;28;20400;-69
2022/05/28 00:58:07;;;;;;;6.82;2.42;;;;;;;14.09;100.00;100517.47;5009946;28;20571;-69
2022/05/28 01:00:34;;;;;;;5.38;2.58;;;;;;;14.15;100.00;100527.94;5010890;28;20057;-69
2022/05/28 01:03:18;;;;;;;5.47;2.95;;;;;;;14.21;100.00;100539.28;5010654;28;20033;-69
2022/05/28 01:06:05;;;;;;;4.93;2.55;;;;;;;14.24;100.00;100536.47;4993474;28;20173;-69
2022/05/28 01:09:04;;;;;;;5.78;2.65;;;;;;;14.28;100.00;100540.78;4993537;28;20128;-69
2022/05/28 01:11:51;;;;;;;5.00;2.58;;;;;;;14.34;100.00;100539.69;4992541;28;20061;-69
2022/05/28 01:14:37;;;;;;;4.30;2.10;;;;;;;14.38;100.00;100546.69;4994146;28;20054;-69
2022/05/28 01:17:16;;;;;;;6.00;2.50;;;;;;;14.42;100.00;100529.53;4988385;28;20160;-69
2022/05/28 01:19:53;;;;;;;4.00;2.33;;;;;;;14.51;100.00;100535.41;5012793;28;20026;-68
2022/05/28 01:23:00;;;;;;;4.45;2.50;;;;;;;14.57;100.00;100536.97;5012181;28;20032;-68
2022/05/28 01:25:28;;;;;;;6.63;2.80;;;;;;;14.63;100.00;100542.06;5012581;28;20054;-68
2022/05/28 01:28:12;;;;;;;5.38;2.63;;;;;;;14.65;100.00;100547.34;5012960;28;20128;-68
2022/05/28 01:30:39;;;;;;;;;;;;;;;14.65;100.00;100540.19;5013368;28;20056;-68
2022/05/28 01:33:07;;;;;;;3.25;1.77;;;;;;;14.66;100.00;100541.06;5012361;28;19917;-68
2022/05/28 01:35:34;;;;;;;6.13;2.70;;;;;;;14.64;100.00;100540.25;4993048;28;20029;-68
2022/05/28 01:38:01;;;;;;;4.10;2.13;;;;;;;14.64;98.50;100543.81;4993441;28;20038;-68
2022/05/28 01:40:27;;;;;;;5.07;2.17;;;;;;;14.58;96.53;100521.78;4992650;28;20057;-68
2022/05/28 01:42:57;;;;;;;5.18;2.38;;;;;;;14.70;92.76;100538.19;4993216;28;20034;-68
2022/05/28 01:45:26;;;;;;;2.67;1.77;;;;;;;14.67;90.09;100538.34;4975893;28;20117;-68
2022/05/28 01:47:54;;;;;;;3.97;1.58;;;;;;;14.66;87.01;100536.59;4991834;28;20034;-68
2022/05/28 01:50:24;;;;;;;4.53;2.25;;;;;;;14.63;85.39;100526.00;5011316;28;20096;-68
2022/05/28 01:52:50;;;;;;;4.28;1.70;;;;;;;14.73;84.13;100532.72;5012988;28;20029;-68
2022/05/28 01:55:18;;;;;;;5.93;1.67;;;;;;;14.72;81.27;100543.50;5012030;28;20071;-69
2022/05/28 01:57:45;;;;;;;5.65;1.77;;;;;;;14.59;78.44;100528.88;4994370;28;20041;-69
2022/05/28 02:00:11;;;;;;;3.78;2.05;;;;;;;14.73;77.72;100546.09;4994217;28;20080;-69
2022/05/28 02:02:37;;;;;;;4.65;1.65;;;;;;;14.73;76.35;100543.44;5012472;28;20026;-69
2022/05/28 02:05:02;;;;;;;8.80;2.03;;;;;;;14.69;74.25;100524.88;4998151;28;20029;-69
2022/05/28 02:07:28;;;;;;;3.08;1.67;;;;;;;14.75;73.49;100541.56;5011005;28;20105;-69
2022/05/28 02:10:16;;;;;;;3.80;1.50;;;;;;;14.75;71.36;100543.38;5010991;28;20105;-69
2022/05/28 02:13:11;;;;;;;4.78;1.52;;;;;;;14.66;70.60;100531.25;4992973;28;20477;-69
2022/05/28 02:15:52;;;;;;;3.60;1.20;;;;;;;14.64;71.38;100526.88;5009723;28;20036;-69
2022/05/28 02:18:32;;;;;;;3.10;1.30;;;;;;;14.77;69.15;100541.50;5009386;28;20136;-69
2022/05/28 02:21:06;;;;;;;4.43;1.52;;;;;;;14.76;67.41;100540.63;5010506;28;20088;-68
2022/05/28 02:23:57;;;;;;;3.53;1.30;;;;;;;14.83;66.73;100550.16;5011178;28;20050;-68
2022/05/28 02:26:46;;;;;;;7.65;1.40;;;;;;;14.84;65.60;100543.88;5011014;28;20358;-69
2022/05/28 02:29:13;;;;;;;4.18;1.70;;;;;;;14.81;67.04;100543.97;5011345;28;20026;-69
2022/05/28 02:31:43;;;;;;;3.35;1.20;;;;;;;14.80;68.67;100544.94;5010922;28;20161;-69
2022/05/28 02:34:09;;;;;;;7.45;2.17;;;;;;;14.76;69.96;100542.44;4994431;28;20033;-69
2022/05/28 02:36:35;;;;;;;4.90;1.52;;;;;;;14.60;70.43;100526.13;4993957;28;20028;-69
2022/05/28 02:39:00;;;;;;;3.83;1.13;;;;;;;14.69;71.02;100552.53;5011459;28;20030;-69
2022/05/28 02:41:26;;;;;;;5.57;1.30;;;;;;;14.73;71.73;100548.78;5010236;28;20033;-69
2022/05/28 02:43:52;;;;;;;3.60;1.50;;;;;;;14.72;71.44;100547.06;5010389;28;20567;-69
2022/05/28 02:46:18;;;;;;;5.63;1.50;;;;;;;14.73;71.78;100550.63;4992603;28;20022;-69
2022/05/28 02:48:45;;;;;;;3.75;1.77;;;;;;;14.75;70.49;100546.91;5009215;28;20393;-69
2022/05/28 02:51:15;;;;;;;6.63;1.52;;;;;;;14.76;69.62;100548.66;5008228;28;20037;-69
2022/05/28 02:53:41;;;;;;;5.72;1.30;;;;;;;14.67;66.99;100534.78;4991135;28;20034;-69
2022/05/28 02:56:08;;;;;;;6.72;2.03;;;;;;;14.71;67.57;100547.97;5010423;28;20496;-69
2022/05/28 02:58:34;;;;;;;8.13;1.58;;;;;;;14.67;69.94;100546.38;4992811;28;20069;-69
2022/05/28 03:01:01;;;;;;;4.05;1.50;;;;;;;14.63;69.51;100541.22;5010007;28;20096;-69
2022/05/28 03:03:27;;;;;;;9.48;1.33;;;;;;;14.49;68.33;100531.94;5009981;28;20359;-69
2022/05/28 03:05:52;;;;;;;5.47;1.65;;;;;;;14.56;70.67;100545.06;5010317;28;20045;-69
2022/05/28 03:08:18;;;;;;;4.15;1.35;;;;;;;14.39;70.38;100537.69;5009689;28;20026;-69
2022/05/28 03:10:45;;;;;;;4.70;1.50;;;;;;;14.41;70.79;100551.91;5009313;28;20025;-69
2022/05/28 03:13:13;;;;;;;4.00;1.38;;;;;;;14.39;71.80;100553.75;5010204;28;20038;-69
2022/05/28 03:15:39;;;;;;;4.30;1.52;;;;;;;14.32;72.21;100541.53;5010476;28;20030;-69
2022/05/28 03:18:04;;;;;;;3.78;1.08;;;;;;;14.27;72.70;100544.41;4993885;28;20034;-69
2022/05/28 03:20:30;;;;;;;4.20;1.40;;;;;;;14.28;72.16;100550.66;5011651;28;20037;-69
2022/05/28 03:22:57;;;;;;;6.47;2.03;;;;;;;14.23;71.42;100555.28;5010272;28;20164;-69
2022/05/28 03:25:22;;;;;;;3.85;1.33;;;;;;;14.10;72.75;100552.16;5011043;28;20058;-69
2022/05/28 03:27:48;;;;;;;6.22;1.33;;;;;;;14.06;73.80;100560.38;5010564;28;20029;-69
2022/05/28 03:30:13;;;;;;;5.43;2.25;;;;;;;13.97;74.42;100552.72;5011548;28;20061;-69
2022/05/28 03:32:39;;;;;;;6.88;1.58;;;;;;;13.85;74.13;100551.38;5011284;28;20052;-69
2022/05/28 03:35:05;;;;;;;5.32;1.30;;;;;;;13.67;75.24;100536.03;4994418;28;20061;-69
2022/05/28 03:37:30;;;;;;;5.30;1.33;;;;;;;13.69;76.12;100544.84;4991739;28;20743;-69
2022/05/28 03:39:56;;;;;;;7.45;1.42;;;;;;;13.70;76.92;100543.91;4991774;28;20165;-69
2022/05/28 03:42:21;;;;;;;5.78;1.77;;;;;;;13.60;76.74;100541.63;4991082;28;20385;-69
2022/05/28 03:44:47;;;;;;;5.75;1.80;;;;;;;13.64;76.00;100552.16;4991359;28;20610;-68
2022/05/28 03:47:12;;;;;;;3.97;1.65;;;;;;;13.47;77.18;100543.88;4990015;28;20034;-68
2022/05/28 03:49:40;;;;;;;3.97;1.58;;;;;;;13.52;77.46;100562.41;4977794;28;20014;-68
2022/05/28 03:52:06;;;;;;;4.15;1.52;;;;;;;13.45;77.94;100556.44;4991480;28;20034;-68
2022/05/28 03:54:31;;;;;;;5.57;1.38;;;;;;;13.43;79.33;100571.63;5009701;28;20041;-68
2022/05/28 03:57:00;;;;;;;8.57;1.73;;;;;;;13.36;79.75;100570.09;5009388;28;20037;-68
2022/05/28 03:59:26;;;;;;;6.57;1.50;;;;;;;13.25;79.99;100556.25;5008826;28;20034;-69
2022/05/28 04:01:53;;;;;;;4.25;1.50;;;;;;;13.30;79.45;100569.44;4991411;28;20393;-68
2022/05/28 04:04:19;;;;;;;7.13;1.55;;;;;;;13.23;79.63;100577.69;5010475;28;20100;-68
2022/05/28 04:06:44;;;;;;;5.93;1.38;;;;;;;13.27;79.38;100580.22;5010677;28;20101;-68
2022/05/28 04:09:10;;;;;;;3.15;1.27;;;;;;;13.23;80.07;100581.28;5011090;28;20030;-68
2022/05/28 04:11:36;;;;;;;5.25;1.40;;;;;;;13.21;80.59;100584.88;5010969;28;20025;-68
2022/05/28 04:14:02;;;;;;;5.50;1.60;;;;;;;13.11;80.78;100562.06;5011180;28;20025;-68
2022/05/28 04:16:27;;;;;;;5.90;1.83;;;;;;;13.17;80.28;100577.00;5010904;28;20063;-69
2022/05/28 04:18:53;;;;;;;4.30;1.90;;;;;;;13.17;80.74;100572.56;5010127;28;20068;-69
2022/05/28 04:21:18;;;;;;;4.65;1.55;;;;;;;13.21;80.99;100578.66;5010220;28;20482;-69
2022/05/28 04:23:44;;;;;;;3.95;1.40;;;;;;;13.22;81.44;100580.41;5014412;28;20490;-69
2022/05/28 04:26:10;;;;;;;4.53;1.38;;;;;;;13.23;82.05;100575.00;5015011;28;20576;-69
2022/05/28 04:28:35;;;;;;;3.47;1.50;;;;;;;13.21;82.78;100584.88;5014507;28;20018;-69
2022/05/28 04:31:01;;;;;;;7.57;1.65;;;;;;;13.23;83.44;100581.28;5014909;28;20361;-68
2022/05/28 04:33:27;;;;;;;7.07;1.40;;;;;;;13.23;83.92;100587.47;5010593;28;20025;-68
2022/05/28 04:35:52;;;;;;;5.15;1.38;;;;;;;13.22;83.67;100591.09;4994529;28;20089;-68
2022/05/28 04:38:18;;;;;;;2.25;1.30;;;;;;;13.11;83.46;100572.75;4994814;28;20041;-68
2022/05/28 04:40:43;;;;;;;8.40;2.03;;;;;;;13.18;83.78;100590.31;4994647;28;20482;-68
2022/05/28 04:43:08;;;;;;;5.65;1.80;;;;;;;13.20;83.78;100583.13;4994959;28;20026;-68
2022/05/28 04:45:34;;;;;;;3.92;1.92;;;;;;;13.20;83.97;100583.13;4995004;28;20030;-68
2022/05/28 04:47:59;;;;;;;8.75;1.85;;;;;;;13.24;83.98;100590.09;4994817;28;20030;-68
2022/05/28 04:50:25;;;;;;;3.90;1.10;;;;;;;13.27;83.71;100583.78;4994509;28;20436;-68
2022/05/28 04:52:50;;;;;;;5.70;1.50;;;;;;;13.29;83.29;100589.06;4994458;28;20042;-68
2022/05/28 04:55:16;;;;;;;4.07;1.88;;;;;;;13.18;82.70;100571.63;4994362;28;20112;-68
2022/05/28 04:57:41;;;;;;;4.90;1.40;;;;;;;13.38;82.50;100586.09;4994417;28;20030;-68
2022/05/28 05:00:21;;;;;;;6.47;1.38;;;;;;;13.44;82.16;100591.22;4994589;28;20478;-68
2022/05/28 05:02:47;;;;;;;3.03;1.10;;;;;;;13.53;82.09;100593.56;4994571;28;20105;-68
2022/05/28 05:05:12;;;;;;;5.72;1.40;;;;;;;13.48;81.00;100572.34;4994398;28;20133;-68
2022/05/28 05:07:38;;;;;;;7.53;1.90;;;;;;;13.65;80.71;100586.00;4993905;28;20022;-68
2022/05/28 05:10:04;;;;;;;4.40;1.50;;;;;;;13.61;80.00;100572.75;4994251;28;20120;-68
2022/05/28 05:12:30;;;;;;;6.70;1.60;;;;;;;13.79;77.41;100588.16;4994398;28;20023;-68
2022/05/28 05:14:55;;;;;;;6.03;1.60;;;;;;;13.90;77.19;100589.53;4994025;28;20117;-68
2022/05/28 05:17:20;;;;;;;3.58;1.55;;;;;;;13.84;75.85;100549.63;5003298;28;20053;-68
2022/05/28 05:19:46;;;;;;;7.20;1.70;;;;;;;14.12;75.12;100579.75;5013586;28;20121;-68
2022/05/28 05:22:11;;;;;;;9.32;2.17;;;;;;;14.16;73.43;100585.84;5013861;28;20045;-68
2022/05/28 05:24:37;;;;;;;3.58;1.20;;;;;;;14.37;72.73;100598.44;5012192;28;20517;-68
2022/05/28 05:27:04;;;;;;;4.03;1.50;;;;;;;14.58;72.76;100615.50;5013323;28;20033;-68
2022/05/28 05:29:30;;;;;;;8.45;1.75;;;;;;;14.67;71.18;100607.97;4996004;28;20021;-68
2022/05/28 05:31:55;;;;;;;3.15;1.60;;;;;;;14.82;69.13;100610.03;5013344;28;20025;-68
2022/05/28 05:34:21;;;;;;;6.32;1.95;;;;;;;14.88;66.57;100599.06;5012559;28;20477;-68
2022/05/28 05:36:47;;;;;;;3.40;1.20;;;;;;;15.18;65.18;100623.72;4995775;28;20026;-68
2022/05/28 05:39:12;;;;;;;3.13;1.05;;;;;;;15.21;66.20;100627.13;5013479;28;20529;-68
2022/05/28 05:41:39;;;;;;;3.78;1.38;;;;;;;15.28;64.24;100625.94;5013284;28;20411;-68
2022/05/28 05:44:04;;;;;;;2.83;0.90;;;;;;;15.43;64.24;100624.47;5012748;28;20038;-68
2022/05/28 05:46:30;;;;;;;4.05;1.13;;;;;;;15.53;63.25;100601.69;5013131;28;20026;-68
2022/05/28 05:48:55;;;;;;;2.95;0.93;;;;;;;15.57;58.77;100592.53;5012602;28;20053;-68
2022/05/28 05:51:20;;;;;;;3.92;0.77;;;;;;;15.73;58.47;100617.78;4992179;28;20121;-68
2022/05/28 05:53:46;;;;;;;3.72;0.82;;;;;;;15.71;56.92;100619.66;5009836;28;20026;-68
2022/05/28 05:56:11;;;;;;;3.58;1.10;;;;;;;15.63;56.36;100625.31;4995487;28;20021;-68
2022/05/28 05:58:37;;;;;;;6.10;1.20;;;;;;;15.80;57.99;100632.63;4995358;28;20486;-68
2022/05/28 06:01:04;;;;;;;4.18;1.00;;;;;;;15.98;58.49;100625.59;5012484;28;20030;-68
2022/05/28 06:03:30;;;;;;;3.25;1.00;;;;;;;16.12;56.65;100612.41;5008337;28;20438;-68
2022/05/28 06:05:59;;;;;;;3.65;1.08;;;;;;;16.25;56.38;100632.38;4993331;28;20034;-68
2022/05/28 06:08:25;;;;;;;2.00;1.08;;;;;;;16.43;56.27;100623.47;4993349;28;20105;-68
2022/05/28 06:10:51;;;;;;;3.10;0.90;;;;;;;16.56;55.22;100619.31;4993252;28;20030;-68
2022/05/28 06:13:16;;;;;;;3.55;1.13;;;;;;;16.71;56.17;100623.94;4993214;28;20128;-68
2022/05/28 06:15:42;;;;;;;6.68;1.00;;;;;;;16.71;53.73;100622.16;4993187;28;20105;-68
2022/05/28 06:18:07;;;;;;;3.50;0.90;;;;;;;16.75;53.94;100628.25;5008779;28;20029;-67
2022/05/28 06:20:34;;;;;;;6.00;1.17;;;;;;;16.90;53.65;100627.50;5012989;28;20029;-67
2022/05/28 06:23:00;;;;;;;7.10;0.95;;;;;;;16.93;53.67;100619.28;5012524;28;20464;-67
2022/05/28 06:25:26;;;;;;;5.10;1.10;;;;;;;17.10;51.42;100627.38;5012749;28;20485;-67
2022/05/28 06:27:51;;;;;;;5.93;1.15;;;;;;;17.06;51.46;100620.44;5012747;28;20083;-67
2022/05/28 06:30:17;;;;;;;4.30;1.45;;;;;;;17.22;51.96;100632.16;5012473;28;20370;-68
2022/05/28 06:32:42;;;;;;;4.85;0.90;;;;;;;17.32;51.75;100627.19;5012272;28;20428;-68
2022/05/28 06:35:09;;;;;;;2.50;0.70;;;;;;;17.28;51.23;100599.56;5012099;28;20033;-68
2022/05/28 06:37:34;;;;;;;4.68;1.17;;;;;;;17.57;51.61;100620.53;5012526;28;20396;-68
2022/05/28 06:40:00;;;;;;;3.22;0.85;;;;;;;17.53;50.51;100627.00;5012134;28;20022;-67
2022/05/28 06:42:25;;;;;;;5.78;1.25;;;;;;;17.85;50.42;100628.91;5012652;28;20040;-68
2022/05/28 06:44:51;;;;;;;2.15;0.82;;;;;;;18.17;50.79;100629.91;5010167;28;20036;-68
2022/05/28 06:47:16;;;;;;;3.35;0.93;;;;;;;18.24;48.67;100634.84;5011107;28;20116;-67
2022/05/28 06:49:41;;;;;;;4.45;1.00;;;;;;;18.28;48.86;100635.56;5011108;28;20026;-67
2022/05/28 06:52:07;;;;;;;2.38;0.70;;;;;;;18.23;48.90;100625.06;5011405;28;20022;-68
2022/05/28 06:54:33;;;;;;;2.42;0.70;;;;;;;18.65;48.24;100642.53;5011248;28;20088;-68
2022/05/28 06:56:58;;;;;;;3.58;0.80;;;;;;;18.80;46.88;100631.75;5011511;28;20030;-68
2022/05/28 06:59:24;;;;;;;4.00;0.95;;;;;;;18.85;44.98;100620.69;5011345;28;20052;-68
2022/05/28 07:01:49;;;;;;;2.53;1.10;;;;;;;19.07;47.41;100637.41;5012064;28;20120;-68
2022/05/28 07:04:15;;;;;;;2.92;0.80;;;;;;;19.21;46.28;100637.47;5011627;28;20026;-68
2022/05/28 07:06:40;;;;;;;3.47;0.60;;;;;;;19.09;45.09;100640.88;5011711;28;20034;-68
2022/05/28 07:09:05;;;;;;;1.92;0.50;;;;;;;18.96;45.28;100632.63;5010020;28;20022;-67
2022/05/28 07:11:31;;;;;;;4.15;0.85;;;;;;;19.01;45.30;100629.69;5011698;28;20029;-67
2022/05/28 07:13:57;;;;;;;5.22;0.70;;;;;;;19.21;45.51;100626.69;5011849;28;20462;-67
2022/05/28 07:16:22;;;;;;;3.00;0.73;;;;;;;18.97;42.92;100628.09;5010628;28;20032;-67
2022/05/28 07:18:48;;;;;;;5.65;1.08;;;;;;;18.93;43.15;100626.56;5010707;28;20021;-68
2022/05/28 07:21:13;;;;;;;1.63;0.70;;;;;;;19.19;43.50;100626.75;5009872;28;20303;-68
2022/05/28 07:23:39;;;;;;;2.72;0.80;;;;;;;19.50;42.82;100617.78;5008518;28;20073;-68
2022/05/28 07:26:17;;;;;;;3.33;0.77;;;;;;;19.93;43.19;100606.13;5009623;28;20029;-69
2022/05/28 07:28:44;;;;;;;4.15;0.93;;;;;;;20.41;42.31;100616.59;5006043;28;20128;-69
2022/05/28 07:31:15;;;;;;;3.55;0.68;;;;;;;20.94;42.21;100611.31;5007421;28;20076;-69
2022/05/28 07:33:44;;;;;;;3.13;0.77;;;;;;;21.07;38.47;100613.25;5008572;28;20065;-69
2022/05/28 07:36:13;;;;;;;2.38;0.80;;;;;;;21.02;38.76;100615.38;5006404;28;20045;-68
2022/05/28 07:38:39;;;;;;;1.88;0.60;;;;;;;20.89;38.48;100604.47;5007024;28;20028;-70
2022/05/28 07:41:07;;;;;;;2.83;1.00;;;;;;;21.32;39.48;100607.91;5006563;28;20132;-70
2022/05/28 07:43:34;;;;;;;2.95;1.02;;;;;;;21.54;37.45;100608.22;5007294;28;20048;-70
2022/05/28 07:46:00;;;;;;;4.20;0.52;;;;;;;21.77;38.67;100599.41;5007183;28;20026;-70
2022/05/28 07:48:25;;;;;;;2.45;0.70;;;;;;;21.94;36.23;100599.97;5007530;28;20360;-68
2022/05/28 07:50:50;;;;;;;3.08;0.60;;;;;;;22.20;38.02;100608.97;5006511;28;20038;-69
2022/05/28 07:53:16;;;;;;;3.45;0.63;;;;;;;22.32;37.64;100594.56;5008269;28;20123;-69
2022/05/28 07:55:42;;;;;;;2.13;0.82;;;;;;;22.48;37.17;100606.03;5007992;28;20037;-69
2022/05/28 07:58:14;;;;;;;2.30;0.70;;;;;;;22.54;37.33;100602.91;5008062;28;20560;-69
2022/05/28 08:00:44;;;;;;;3.58;0.80;;;;;;;22.62;36.92;100589.66;5007613;28;20366;-71
2022/05/28 08:03:12;;;;;;;2.92;0.60;;;;;;;22.98;36.92;100591.50;5008159;28;20038;-70
2022/05/28 08:05:38;;;;;;;3.40;0.70;;;;;;;23.36;37.41;100579.53;5008335;28;20569;-69
2022/05/28 08:08:05;;;;;;;3.10;0.40;;;;;;;23.58;35.20;100572.44;5008483;28;20110;-69
2022/05/28 08:10:31;;;;;;;4.53;0.85;;;;;;;23.95;35.81;100584.91;4990189;28;20026;-69
2022/05/28 08:13:01;;;;;;;2.13;0.70;;;;;;;24.04;33.40;100579.63;5008097;28;20036;-68
2022/05/28 08:15:26;;;;;;;3.03;0.70;;;;;;;24.00;35.67;100589.00;4990124;28;20026;-68
2022/05/28 08:17:52;;;;;;;1.48;0.55;;;;;;;24.25;34.56;100582.50;5008649;28;20033;-69
2022/05/28 08:20:17;;;;;;;3.20;0.70;;;;;;;24.28;33.03;100583.09;5008729;28;20536;-68
2022/05/28 08:25:26;;;;;;;3.35;0.65;;;;;;;23.51;36.07;100577.47;5007783;28;20084;-68
2022/05/28 08:27:52;;;;;;;5.22;1.00;;;;;;;23.81;34.83;100576.94;5007456;28;20041;-68
2022/05/28 08:30:17;;;;;;;3.47;0.80;;;;;;;23.78;35.12;100574.47;5006934;28;20070;-69
2022/05/28 08:32:43;;;;;;;2.92;0.65;;;;;;;23.91;33.83;100573.41;5007518;28;20037;-67
2022/05/28 08:35:08;;;;;;;2.85;0.50;;;;;;;23.71;36.20;100582.25;4989727;28;20552;-68
2022/05/28 08:37:33;;;;;;;2.83;0.57;;;;;;;23.63;34.74;100581.09;4987804;28;20118;-68
2022/05/28 08:39:59;;;;;;;3.33;0.60;;;;;;;23.16;34.60;100574.69;4988296;28;20073;-68
2022/05/28 08:42:27;;;;;;;1.85;0.63;;;;;;;23.40;35.60;100569.28;4989987;28;20036;-69
2022/05/28 08:44:55;;;;;;;2.75;0.70;;;;;;;23.77;34.00;100575.47;4999506;28;20079;-69
2022/05/28 08:47:28;;;;;;;4.88;0.63;;;;;;;23.83;33.43;100574.97;5006630;28;20038;-69
2022/05/28 08:49:54;;;;;;;1.85;0.55;;;;;;;23.54;33.24;100574.53;5007858;28;20022;-69
2022/05/28 08:52:28;;;;;;;4.13;0.70;;;;;;;23.46;36.02;100573.41;5008795;28;20133;-67
2022/05/28 08:55:00;;;;;;;2.53;0.57;;;;;;;23.35;34.50;100569.66;5008244;28;20109;-68
2022/05/28 08:57:48;;;;;;;4.05;0.57;;;;;;;23.20;35.44;100562.63;5008736;28;20053;-69
2022/05/28 09:00:38;;;;;;;3.22;0.80;;;;;;;23.53;36.26;100571.91;5008484;28;20049;-69
2022/05/28 09:03:10;;;;;;;6.75;0.60;;;;;;;23.96;35.40;100560.31;5010307;28;20101;-69
2022/05/28 09:05:42;;;;;;;3.00;1.40;;;;;;;24.51;35.61;100559.50;5010337;28;20109;-66
2022/05/28 09:08:10;;;;;;;5.35;0.75;;;;;;;24.32;33.58;100551.97;5010902;28;20096;-67
2022/05/28 09:10:42;;;;;;;5.38;1.00;;;;;;;24.25;34.34;100560.75;5013616;28;20133;-67
2022/05/28 09:13:34;;;;;;;2.83;0.75;;;;;;;24.62;34.06;100554.06;5013864;28;20034;-68
2022/05/28 09:16:02;;;;;;;5.00;0.65;;;;;;;24.51;34.36;100554.06;5002858;28;20049;-68
2022/05/28 09:18:33;;;;;;;1.15;0.35;;;;;;;24.32;34.92;100561.97;5013813;28;20022;-68
2022/05/28 09:20:59;;;;;;;2.72;0.63;;;;;;;24.61;33.85;100552.34;5014073;28;20034;-68
2022/05/28 09:23:25;;;;;;;3.85;0.57;;;;;;;24.53;33.12;100539.34;5013802;28;20114;-68
2022/05/28 09:25:54;;;;;;;2.85;1.30;;;;;;;24.50;35.30;100549.59;5013804;28;20121;-68
2022/05/28 09:28:37;;;;;;;5.50;0.60;;;;;;;24.72;34.33;100544.19;5013484;28;20061;-70
2022/05/28 09:31:06;;;;;;;3.15;0.60;;;;;;;24.45;33.86;100546.38;5013098;28;20452;-68
2022/05/28 09:33:50;;;;;;;2.88;0.50;;;;;;;24.07;35.63;100554.06;5009074;28;20045;-67
2022/05/28 09:36:46;;;;;;;3.13;0.50;;;;;;;24.11;34.98;100547.38;4993986;28;20493;-67
2022/05/28 09:39:38;;;;;;;1.65;0.43;;;;;;;24.15;33.85;100559.75;4993855;28;20434;-66
2022/05/28 09:42:41;;;;;;;1.75;0.40;;;;;;;23.44;34.12;100544.50;4994634;28;20092;-67
2022/05/28 09:45:43;;;;;;;3.70;0.70;;;;;;;23.54;35.61;100533.81;4994012;28;20181;-66
2022/05/28 09:48:26;;;;;;;2.92;0.70;;;;;;;23.79;33.76;100541.75;4994378;28;20061;-66
2022/05/28 09:50:52;;;;;;;3.42;0.70;;;;;;;24.42;35.41;100543.94;4993388;28;20323;-66
2022/05/28 09:56:36;;;;;;;1.70;0.60;;;;;;;24.78;33.19;100532.78;5013516;28;20072;-67
2022/05/28 09:59:25;;;;;;;1.92;0.60;;;;;;;24.38;33.23;100534.31;5013022;28;20168;-65
2022/05/28 10:02:04;;;;;;;2.13;0.35;;;;;;;24.75;31.00;100533.03;5012162;28;20026;-67
2022/05/28 10:04:30;;;;;;;3.10;0.85;;;;;;;24.89;31.95;100532.78;5013008;28;20441;-67
2022/05/28 10:07:00;;;;;;;1.92;0.50;;;;;;;24.76;33.07;100526.59;5013057;28;20022;-66
2022/05/28 10:09:29;;;;;;;3.67;0.47;;;;;;;24.83;34.16;100519.66;5013042;28;20037;-67
2022/05/28 10:11:58;;;;;;;2.05;0.50;;;;;;;24.87;32.46;100518.41;5012778;28;20389;-67
2022/05/28 10:14:25;;;;;;;3.47;0.63;;;;;;;25.04;31.96;100517.00;5012981;28;20026;-67
2022/05/28 10:16:57;;;;;;;3.40;0.60;;;;;;;24.86;31.39;100508.50;5012553;28;20489;-67
2022/05/28 10:19:28;;;;;;;2.00;0.50;;;;;;;24.55;32.21;100510.16;5011874;28;20485;-67
2022/05/28 10:21:58;;;;;;;3.17;0.73;;;;;;;24.78;32.77;100502.84;5013170;28;20045;-68
2022/05/28 10:24:26;;;;;;;1.95;0.60;;;;;;;25.05;33.96;100505.97;5013526;28;20045;-67
2022/05/28 10:26:59;;;;;;;5.93;0.50;;;;;;;24.94;31.01;100494.28;5014250;28;20021;-69
2022/05/28 10:29:38;;;;;;;2.95;0.50;;;;;;;24.60;32.82;100498.91;5013269;28;20069;-68
2022/05/28 10:32:18;;;;;;;5.80;1.35;;;;;;;24.27;32.56;100493.50;5013072;28;20084;-67
2022/05/28 10:34:44;;;;;;;3.95;0.60;;;;;;;24.34;31.47;100501.06;4996712;28;20512;-68
2022/05/28 10:37:15;;;;;;;4.65;0.60;;;;;;;24.11;31.30;100493.91;4990922;28;20346;-67
2022/05/28 10:39:41;;;;;;;3.33;0.70;;;;;;;24.59;30.77;100494.47;4998668;28;20025;-68
2022/05/28 10:42:09;;;;;;;2.55;0.50;;;;;;;25.08;31.23;100492.09;5009985;28;20034;-67
2022/05/28 10:44:35;;;;;;;5.25;0.90;;;;;;;25.55;30.50;100491.63;5010139;28;20093;-67
2022/05/28 10:47:07;;;;;;;2.20;0.45;;;;;;;25.96;29.61;100496.22;4992578;28;20551;-67
2022/05/28 10:49:46;;;;;;;1.75;0.50;;;;;;;25.77;32.16;100486.06;5011566;28;20024;-67
2022/05/28 10:52:26;;;;;;;4.63;0.75;;;;;;;25.74;29.93;100486.31;5012260;28;20057;-67
2022/05/28 10:55:03;;;;;;;3.15;0.63;;;;;;;25.43;31.18;100490.00;5012252;28;20547;-67
2022/05/28 10:57:57;;;;;;;1.80;0.50;;;;;;;24.71;32.08;100469.00;5011873;28;20109;-67
2022/05/28 11:00:35;;;;;;;2.05;0.40;;;;;;;24.91;32.34;100468.16;4992006;28;20080;-67
2022/05/28 11:03:24;;;;;;;3.47;0.60;;;;;;;24.77;33.44;100471.19;4993369;28;20116;-66
2022/05/28 11:06:14;;;;;;;2.33;0.60;;;;;;;24.23;31.55;100475.72;4957011;28;20408;-66
2022/05/28 11:08:42;;;;;;;1.33;0.40;;;;;;;23.93;32.82;100464.56;5010465;28;20101;-67
2022/05/28 11:11:23;;;;;;;3.97;0.68;;;;;;;23.68;32.62;100452.09;5010228;28;20108;-67
2022/05/28 11:14:03;;;;;;;1.98;0.47;;;;;;;23.72;37.23;100450.88;5010491;28;20485;-67
2022/05/28 11:17:04;;;;;;;4.50;0.98;;;;;;;24.05;36.45;100460.91;5009639;28;20030;-67
2022/05/28 11:19:52;;;;;;;2.25;0.45;;;;;;;24.05;33.65;100448.16;4991763;28;20516;-67
2022/05/28 11:22:21;;;;;;;3.25;0.50;;;;;;;24.50;35.22;100438.06;5009899;28;20038;-67
2022/05/28 11:24:55;;;;;;;2.42;0.50;;;;;;;25.33;33.37;100439.13;5010134;28;20060;-69
2022/05/28 11:27:23;;;;;;;1.45;0.55;;;;;;;25.82;33.35;100428.41;5010013;28;20199;-68
2022/05/28 11:30:07;;;;;;;2.75;0.55;;;;;;;26.03;31.59;100433.84;5008859;28;20021;-68
2022/05/28 11:32:42;;;;;;;2.75;0.50;;;;;;;24.93;31.26;100422.63;5009925;28;20050;-67
2022/05/28 11:35:33;;;;;;;2.17;0.70;;;;;;;25.02;33.23;100420.97;4993140;28;20072;-67
2022/05/28 11:38:24;;;;;;;2.00;0.52;;;;;;;25.05;31.29;100413.41;4990016;28;20096;-67
2022/05/28 11:41:05;;;;;;;0.60;0.40;;;;;;;25.37;30.76;100416.97;4989594;28;20532;-67
2022/05/28 11:43:40;;;;;;;1.48;0.70;;;;;;;25.65;31.76;100416.25;4990111;28;20022;-67